Airfield :
LOGIN :

Register | Disclaimer

   EN    FR    IT 

 










Legend :    VFR   Marginal VFR   IFR   Intensive IFR   Very Intensive IFR
Visi :
Ceiling :
>= 8 km
>= 3000ft
5 to 8 km
1000 to 3000 ft
1500m to 5 km
500 to 1000 ft
800 to 1500m
200 to 500 ft
< 800m
< 200 ft
Symbols :   Thunderstorms  Fog  Heavy snow  Heavy precipitations  Wind > 20 kt
SIGMETs :     Misc.  Thunderstorms  Icing  Turbulence  Mountain Waves  Volcanic Ashes







- Airport Elevation : 1 ft
- Download approach charts


EGCK - Caernarfon

CURRENT METAR :
  • 200450Z AUTO 21017KT 3800 RA OVC002/// 15/15 Q0999

EXPIRED METARs :
  • 200420Z AUTO 20013KT 3600 RA BKN002/// OVC010/// 15/14 Q0999 RERA
  • 200350Z AUTO 20015KT 4700 RA SCT002/// OVC010/// 16/14 Q0999
  • 200320Z AUTO 20016G27KT 9999 OVC014/// 16/14 Q0999
  • 200250Z AUTO 20015KT 9999 BKN013/// 16/14 Q1000
  • 200220Z AUTO 20016KT 9999 BKN013/// 17/14 Q1000

TAF TAF EGCK
Valid from the 20 at 03:00 until the 20 at 12:00 UTC


200158Z 2003/2012 21015KT 9999 SCT020
TEMPO 2003/2006 21020G30KT
TEMPO 2003/2010 6000 SHRA BKN008
PROB30
TEMPO 2003/2008 4000 RA BKN004
BECMG 2006/2009 29008KT
No reported NOTAMs for that airfield.
1 SIGMET reported for the London FIR (EGTT) :
 
Embedded thunderstorms
EGTT SIGMET 01 VALID 200130/200530 EGRR
EGTT LONDON FIR EMBD TS OBS WI N5122 W00150 - N5247 E00149 - N5113 E00138 - N5010 E00011 - N5000 W00015 - N5000 W00137 - N5122 W00150 TOP FL350 MOV NE 25KT NC=



MET'MAP, your aeronautical weather chart ! - Copyright ORBIFLY December 2007 - Disclaimer

ORBIFLY MET'MAP TEAM :

Programming & Development : Alexandra Zaïnal
Concept & Development : Baudouin d'Aumeries
Co-Development & Prog : Marc-Olivier Méhu
Technical & hardware support : Manuel Goepfert

Contact : metmap@orbifly.com




SOURCES & CREDITS :

   NOAA